createdAt,value
2023-04-26T06:21:08.856Z,100.00
2023-04-26T06:31:09.035Z,100.00
2023-04-26T06:41:08.948Z,100.00
2023-04-26T06:51:09.008Z,100.00
2023-04-26T07:01:08.951Z,100.00
2023-04-26T07:11:09.072Z,100.00
2023-04-26T07:21:09.050Z,97.63
2023-04-26T07:31:10.624Z,95.11
2023-04-26T07:41:09.288Z,95.02
2023-04-26T07:51:08.923Z,92.61
2023-04-26T08:01:09.417Z,91.31
2023-04-26T08:11:09.184Z,90.41
2023-04-26T08:21:09.353Z,85.23
2023-04-26T08:31:09.538Z,81.63
2023-04-26T08:41:09.675Z,78.83
2023-04-26T08:51:09.408Z,78.50
2023-04-26T09:01:09.455Z,77.29
2023-04-26T09:11:09.455Z,72.96
2023-04-26T09:21:09.394Z,73.59
2023-04-26T09:31:09.516Z,70.89
2023-04-26T09:41:09.321Z,68.59
2023-04-26T09:51:10.352Z,68.19
2023-04-26T10:01:09.519Z,65.43
2023-04-26T10:11:09.443Z,65.55
2023-04-26T10:21:09.249Z,66.92
2023-04-26T10:31:10.484Z,67.40
2023-04-26T10:41:09.357Z,68.40
2023-04-26T10:51:09.309Z,65.34
2023-04-26T11:01:09.598Z,64.44
2023-04-26T11:11:09.536Z,62.60
2023-04-26T11:21:09.196Z,59.25
2023-04-26T11:31:09.519Z,58.73
2023-04-26T11:41:09.262Z,60.06
2023-04-26T11:51:09.474Z,59.85
2023-04-26T12:01:09.361Z,58.10
2023-04-26T12:11:09.296Z,57.01
2023-04-26T12:21:09.271Z,56.65
2023-04-26T12:31:09.719Z,52.89
2023-04-26T12:41:09.319Z,56.11
2023-04-26T12:51:09.505Z,57.90
2023-04-26T13:01:09.594Z,59.21
2023-04-26T13:11:09.320Z,59.13
2023-04-26T13:21:09.392Z,57.92
2023-04-26T13:31:09.492Z,57.97
2023-04-26T13:41:09.337Z,58.04
2023-04-26T13:51:09.571Z,59.58
2023-04-26T14:01:09.389Z,58.88
2023-04-26T14:11:09.315Z,58.43
2023-04-26T14:21:09.449Z,58.03
2023-04-26T14:31:09.317Z,57.34
2023-04-26T14:41:09.339Z,53.95
2023-04-26T14:51:09.469Z,56.47
2023-04-26T15:01:09.514Z,58.37
2023-04-26T15:11:09.556Z,60.82
2023-04-26T15:21:09.457Z,61.77
2023-04-26T15:31:09.398Z,61.30
2023-04-26T15:41:09.359Z,59.86
2023-04-26T15:51:09.346Z,59.06
2023-04-26T16:01:09.743Z,59.68
2023-04-26T16:11:09.337Z,59.55
2023-04-26T16:21:09.854Z,59.88
2023-04-26T16:31:09.519Z,58.84
2023-04-26T16:41:09.565Z,59.13
2023-04-26T16:51:09.617Z,60.03
2023-04-26T17:01:09.664Z,61.96
2023-04-26T17:11:09.545Z,63.48
2023-04-26T17:21:09.466Z,69.33
2023-04-26T17:31:09.693Z,70.09
2023-04-26T17:41:09.731Z,67.14
2023-04-26T17:51:09.730Z,67.93
2023-04-26T18:01:09.626Z,69.71
2023-04-26T18:11:09.754Z,70.89
2023-04-26T18:21:09.701Z,71.24
2023-04-26T18:31:09.605Z,75.01
2023-04-26T18:41:09.796Z,76.04
2023-04-26T18:51:09.718Z,77.59
2023-04-26T19:01:09.999Z,78.57
2023-04-26T19:11:10.039Z,77.04
2023-04-26T19:21:10.140Z,77.17
